Time;durP1;ratioP1;P1;durP2;ratioP2;P2;SDS_P1;SDS_P2;PMS_P1;PMS_P2;Temp;Humidity;BMP_temperature;BMP_pressure;BME280_temperature;BME280_humidity;BME280_pressure;Samples;Min_cycle;Max_cycle;Signal;HPM_P1;HPM_P2
2021/12/22 00:00:26;;;;;;;9.57;6.60;;;;;;;;;;5069262;28;20258;-90
2021/12/22 00:02:54;;;;;;;9.20;6.13;;;;;;;;;;5070175;28;20240;-92
2021/12/22 00:05:23;;;;;;;14.70;7.43;;;;;;;;;;5075363;28;20223;-92
2021/12/22 00:07:51;;;;;;;14.03;7.70;;;;;;;;;;5071554;28;20202;-91
2021/12/22 00:10:20;;;;;;;15.87;8.53;;;;;;;;;;5070460;28;20254;-91
2021/12/22 00:12:48;;;;;;;13.33;8.17;;;;;;;;;;5075006;28;20228;-91
2021/12/22 00:15:16;;;;;;;11.27;7.23;;;;;;;;;;5075449;28;20210;-91
2021/12/22 00:17:44;;;;;;;8.47;5.80;;;;;;;;;;5071263;28;20206;-91
2021/12/22 00:20:12;;;;;;;10.47;6.90;;;;;;;;;;5061636;28;20217;-91
2021/12/22 00:22:39;;;;;;;9.20;6.90;;;;;;;;;;5060946;28;20267;-91
2021/12/22 00:25:07;;;;;;;9.43;6.43;;;;;;;;;;5074220;28;20234;-91
2021/12/22 00:27:36;;;;;;;8.90;6.20;;;;;;;;;;5074679;28;20246;-91
2021/12/22 00:33:03;;;;;;;13.27;8.03;;;;;;;;;;5072582;28;20225;-91
2021/12/22 00:35:38;;;;;;;14.87;7.33;;;;;;;;;;5075792;28;20714;-91
2021/12/22 00:38:05;;;;;;;10.80;8.23;;;;;;;;;;5070695;28;20212;-91
2021/12/22 00:40:33;;;;;;;12.53;7.20;;;;;;;;;;5073420;28;20259;-91
2021/12/22 00:43:01;;;;;;;10.23;6.27;;;;;;;;;;5073820;28;20283;-92
2021/12/22 00:45:32;;;;;;;11.87;7.03;;;;;;;;;;5074691;28;20697;-91
2021/12/22 00:47:59;;;;;;;9.83;6.47;;;;;;;;;;5067990;28;20257;-91
2021/12/22 00:50:26;;;;;;;11.57;6.70;;;;;;;;;;5074128;28;20266;-91
2021/12/22 00:53:01;;;;;;;9.67;7.03;;;;;;;;;;5073975;28;20221;-92
2021/12/22 00:55:28;;;;;;;8.40;6.53;;;;;;;;;;5071612;28;20654;-91
2021/12/22 00:57:56;;;;;;;8.37;6.07;;;;;;;;;;5072731;28;20258;-91
2021/12/22 01:00:25;;;;;;;10.27;7.13;;;;;;;;;;5074306;28;20210;-91
2021/12/22 01:02:53;;;;;;;12.87;6.47;;;;;;;;;;5066454;28;20299;-91
2021/12/22 01:05:20;;;;;;;9.47;7.33;;;;;;;;;;5074097;28;20209;-91
2021/12/22 01:07:49;;;;;;;9.63;7.57;;;;;;;;;;5074076;28;20565;-92
2021/12/22 01:10:17;;;;;;;11.67;6.60;;;;;;;;;;5074283;28;20206;-91
2021/12/22 01:12:45;;;;;;;10.03;6.33;;;;;;;;;;5055796;28;20636;-91
2021/12/22 01:15:12;;;;;;;11.27;7.90;;;;;;;;;;5072894;28;20614;-91
2021/12/22 01:17:44;;;;;;;12.13;7.43;;;;;;;;;;5073914;28;20212;-91
2021/12/22 01:20:20;;;;;;;7.03;5.40;;;;;;;;;;5066328;28;20205;-91
2021/12/22 01:22:48;;;;;;;8.27;6.13;;;;;;;;;;5063361;28;20220;-91
2021/12/22 01:25:19;;;;;;;12.03;7.30;;;;;;;;;;5073527;28;20300;-91
2021/12/22 01:27:47;;;;;;;12.73;6.60;;;;;;;;;;5068604;28;20208;-91
2021/12/22 01:30:15;;;;;;;12.33;7.33;;;;;;;;;;5070966;28;20613;-91
2021/12/22 01:32:44;;;;;;;9.77;7.20;;;;;;;;;;5073065;28;20221;-91
2021/12/22 01:35:13;;;;;;;9.83;5.90;;;;;;;;;;5073920;28;20217;-91
2021/12/22 01:37:41;;;;;;;11.03;7.00;;;;;;;;;;5061332;28;20206;-91
2021/12/22 01:40:09;;;;;;;12.77;7.30;;;;;;;;;;5066060;28;20201;-90
2021/12/22 01:42:37;;;;;;;8.47;6.33;;;;;;;;;;5073145;28;20217;-91
2021/12/22 01:45:25;;;;;;;8.83;6.13;;;;;;;;;;5063745;28;20218;-91
2021/12/22 01:50:41;;;;;;;14.63;7.80;;;;;;;;;;5073449;28;20185;-91
2021/12/22 01:53:12;;;;;;;11.70;6.83;;;;;;;;;;5069640;28;20225;-91
2021/12/22 01:55:39;;;;;;;10.90;6.20;;;;;;;;;;5070432;28;20201;-91
2021/12/22 01:58:08;;;;;;;7.07;5.67;;;;;;;;;;5072794;28;20205;-91
2021/12/22 02:00:36;;;;;;;9.83;7.00;;;;;;;;;;5069303;28;20212;-91
2021/12/22 02:03:04;;;;;;;13.67;7.27;;;;;;;;;;5059461;28;20279;-91
2021/12/22 02:05:32;;;;;;;10.63;6.67;;;;;;;;;;5072511;28;20278;-91
2021/12/22 02:08:01;;;;;;;9.57;6.87;;;;;;;;;;5072877;28;20213;-91
2021/12/22 02:13:16;;;;;;;10.17;6.40;;;;;;;;;;5063579;28;20257;-92
2021/12/22 02:15:44;;;;;;;8.30;5.67;;;;;;;;;;5073109;28;20256;-91
2021/12/22 02:18:17;;;;;;;10.83;7.00;;;;;;;;;;5072833;28;20271;-90
2021/12/22 02:20:46;;;;;;;12.17;6.40;;;;;;;;;;5063028;28;20217;-91
2021/12/22 02:23:14;;;;;;;8.50;6.37;;;;;;;;;;5072624;28;20749;-91
2021/12/22 02:25:47;;;;;;;12.07;7.40;;;;;;;;;;5072714;28;20220;-91
2021/12/22 02:28:19;;;;;;;15.70;7.93;;;;;;;;;;5068479;28;20201;-91
2021/12/22 02:30:47;;;;;;;14.13;7.90;;;;;;;;;;5061953;28;20197;-91
2021/12/22 02:33:26;;;;;;;10.87;7.30;;;;;;;;;;5064221;28;20221;-90
2021/12/22 02:36:11;;;;;;;8.60;5.47;;;;;;;;;;5072944;28;20205;-90
2021/12/22 02:38:40;;;;;;;8.80;5.97;;;;;;;;;;5065038;28;20293;-91
2021/12/22 02:41:10;;;;;;;10.57;6.13;;;;;;;;;;5065239;28;20213;-91
2021/12/22 02:43:44;;;;;;;10.37;6.53;;;;;;;;;;5076401;28;20231;-91
2021/12/22 02:46:12;;;;;;;9.90;5.83;;;;;;;;;;5076831;28;20208;-91
2021/12/22 02:48:43;;;;;;;13.03;7.50;;;;;;;;;;5073398;28;20201;-91
2021/12/22 02:51:11;;;;;;;7.80;6.10;;;;;;;;;;5076210;28;20204;-91
2021/12/22 02:53:43;;;;;;;12.43;6.50;;;;;;;;;;5076802;28;20658;-91
2021/12/22 02:59:04;;;;;;;12.87;6.67;;;;;;;;;;5073000;28;20399;-91
2021/12/22 03:02:04;;;;;;;11.40;6.47;;;;;;;;;;5076370;28;20575;-90
2021/12/22 03:04:32;;;;;;;13.70;7.33;;;;;;;;;;5076526;28;20304;-91
2021/12/22 03:07:05;;;;;;;9.87;6.37;;;;;;;;;;5067906;28;20205;-90
2021/12/22 03:09:34;;;;;;;10.23;5.83;;;;;;;;;;5076130;28;20575;-91
2021/12/22 03:12:04;;;;;;;16.27;7.07;;;;;;;;;;5076567;28;20225;-91
2021/12/22 03:14:31;;;;;;;11.07;7.33;;;;;;;;;;5068468;28;20209;-91
2021/12/22 03:16:59;;;;;;;12.90;6.77;;;;;;;;;;5053977;28;20255;-91
2021/12/22 03:19:27;;;;;;;11.27;7.40;;;;;;;;;;5063897;28;20267;-91
2021/12/22 03:22:00;;;;;;;12.27;7.80;;;;;;;;;;5076106;28;20278;-91
2021/12/22 03:24:29;;;;;;;15.77;7.73;;;;;;;;;;5076453;28;20213;-91
2021/12/22 03:27:00;;;;;;;11.67;7.13;;;;;;;;;;5066595;28;20221;-91
2021/12/22 03:29:27;;;;;;;9.53;6.63;;;;;;;;;;5076335;28;20201;-91
2021/12/22 03:31:55;;;;;;;12.30;7.00;;;;;;;;;;5075966;28;20289;-90
2021/12/22 03:34:22;;;;;;;11.23;7.43;;;;;;;;;;5066647;28;20205;-90
2021/12/22 03:36:50;;;;;;;13.00;7.60;;;;;;;;;;5063469;28;20220;-90
2021/12/22 03:39:17;;;;;;;9.13;5.97;;;;;;;;;;5069147;28;20205;-90
2021/12/22 03:41:47;;;;;;;11.40;7.00;;;;;;;;;;5075720;28;20214;-91
2021/12/22 03:44:15;;;;;;;11.70;5.77;;;;;;;;;;5075960;28;20213;-91
2021/12/22 03:46:42;;;;;;;8.10;6.27;;;;;;;;;;5072019;28;20213;-91
2021/12/22 03:49:11;;;;;;;10.53;6.83;;;;;;;;;;5071044;28;20201;-91
2021/12/22 03:51:39;;;;;;;8.33;5.80;;;;;;;;;;5075705;28;20736;-91
2021/12/22 03:54:06;;;;;;;9.50;6.17;;;;;;;;;;5074453;28;20204;-91
2021/12/22 03:56:34;;;;;;;12.60;7.47;;;;;;;;;;5058949;28;20202;-90
2021/12/22 03:59:03;;;;;;;10.67;6.70;;;;;;;;;;5073775;28;20209;-91
2021/12/22 04:01:31;;;;;;;14.40;7.50;;;;;;;;;;5075385;28;20279;-91
2021/12/22 04:04:03;;;;;;;11.30;6.83;;;;;;;;;;5071696;28;20263;-91
2021/12/22 04:06:30;;;;;;;14.30;8.67;;;;;;;;;;5068599;28;20662;-91
2021/12/22 04:08:57;;;;;;;12.77;7.47;;;;;;;;;;5074416;28;20698;-90
2021/12/22 04:11:25;;;;;;;11.60;7.23;;;;;;;;;;5075208;28;20594;-90
2021/12/22 04:13:52;;;;;;;14.80;7.63;;;;;;;;;;5068297;28;20209;-91
2021/12/22 04:16:21;;;;;;;13.07;7.93;;;;;;;;;;5067305;28;20212;-91
2021/12/22 04:18:48;;;;;;;10.43;6.23;;;;;;;;;;5075006;28;20277;-91
2021/12/22 04:21:15;;;;;;;13.47;6.40;;;;;;;;;;5073045;28;20241;-91
2021/12/22 04:23:43;;;;;;;11.30;6.53;;;;;;;;;;5063809;28;20202;-91
2021/12/22 04:26:12;;;;;;;11.20;7.10;;;;;;;;;;5073912;28;20731;-90
2021/12/22 04:28:40;;;;;;;12.97;7.70;;;;;;;;;;5074898;28;20236;-91
2021/12/22 04:31:07;;;;;;;9.10;6.40;;;;;;;;;;5063209;28;20274;-90
2021/12/22 04:33:36;;;;;;;12.40;6.93;;;;;;;;;;5074112;28;20237;-90
2021/12/22 04:36:03;;;;;;;10.13;6.53;;;;;;;;;;5074650;28;20209;-91
2021/12/22 04:38:30;;;;;;;9.47;6.60;;;;;;;;;;5070385;28;20202;-91
2021/12/22 04:41:03;;;;;;;9.00;5.93;;;;;;;;;;5058709;28;20264;-91
2021/12/22 04:43:30;;;;;;;10.77;6.70;;;;;;;;;;5074306;28;20201;-91
2021/12/22 04:45:57;;;;;;;11.43;6.10;;;;;;;;;;5074475;28;20209;-91
2021/12/22 04:48:25;;;;;;;10.87;6.53;;;;;;;;;;5069386;28;20703;-91
2021/12/22 04:50:53;;;;;;;10.17;5.97;;;;;;;;;;5074205;28;20217;-91
2021/12/22 04:53:24;;;;;;;10.63;6.87;;;;;;;;;;5074119;28;20221;-91
2021/12/22 04:55:51;;;;;;;9.50;5.20;;;;;;;;;;5070609;28;20210;-91
2021/12/22 04:58:19;;;;;;;8.47;5.37;;;;;;;;;;5073574;28;20212;-90
2021/12/22 05:00:46;;;;;;;9.30;6.00;;;;;;;;;;5074159;28;20209;-91
2021/12/22 05:03:13;;;;;;;7.13;4.67;;;;;;;;;;5074110;28;20222;-91
2021/12/22 05:05:41;;;;;;;5.63;4.60;;;;;;;;;;5066048;28;20202;-91
2021/12/22 05:08:09;;;;;;;10.47;6.13;;;;;;;;;;5070118;28;20619;-91
2021/12/22 05:10:37;;;;;;;8.77;6.03;;;;;;;;;;5074226;28;20201;-91
2021/12/22 05:13:04;;;;;;;7.73;5.27;;;;;;;;;;5070273;28;20222;-91
2021/12/22 05:15:37;;;;;;;8.33;5.57;;;;;;;;;;5067956;28;20537;-91
2021/12/22 05:18:35;;;;;;;9.73;6.73;;;;;;;;;;5073168;28;20697;-90
2021/12/22 05:21:03;;;;;;;11.87;6.60;;;;;;;;;;5074319;28;20229;-91
2021/12/22 05:23:31;;;;;;;9.40;6.43;;;;;;;;;;5072028;28;20272;-91
2021/12/22 05:25:59;;;;;;;8.67;5.47;;;;;;;;;;5064504;28;20225;-90
2021/12/22 05:28:26;;;;;;;11.63;5.57;;;;;;;;;;5073093;28;20201;-91
2021/12/22 05:30:53;;;;;;;8.47;5.63;;;;;;;;;;5063419;28;20267;-91
2021/12/22 05:33:21;;;;;;;8.23;5.23;;;;;;;;;;5072904;28;20233;-90
2021/12/22 05:35:48;;;;;;;8.00;6.03;;;;;;;;;;5073337;28;20224;-91
2021/12/22 05:38:17;;;;;;;9.80;6.10;;;;;;;;;;5068979;28;20214;-91
2021/12/22 05:40:46;;;;;;;8.63;5.73;;;;;;;;;;5071098;28;20200;-90
2021/12/22 05:43:13;;;;;;;8.13;5.80;;;;;;;;;;5072950;28;20740;-91
2021/12/22 05:45:40;;;;;;;7.23;5.20;;;;;;;;;;5073479;28;20284;-90
2021/12/22 05:48:07;;;;;;;8.97;5.47;;;;;;;;;;5068961;28;20232;-90
2021/12/22 05:50:35;;;;;;;8.47;5.43;;;;;;;;;;5068521;28;20197;-91
2021/12/22 05:53:02;;;;;;;9.80;6.00;;;;;;;;;;5072786;28;20225;-91
2021/12/22 05:55:30;;;;;;;9.10;6.43;;;;;;;;;;5073305;28;20259;-90
2021/12/22 05:57:58;;;;;;;9.87;6.53;;;;;;;;;;5067263;28;20205;-90
2021/12/22 06:00:26;;;;;;;8.03;5.43;;;;;;;;;;5066211;28;20895;-91
2021/12/22 06:02:53;;;;;;;9.83;6.80;;;;;;;;;;5072787;28;20221;-91
2021/12/22 06:05:20;;;;;;;12.97;6.07;;;;;;;;;;5073041;28;20236;-91
2021/12/22 06:07:48;;;;;;;12.37;6.50;;;;;;;;;;5067010;28;20201;-90
2021/12/22 06:10:15;;;;;;;8.50;5.50;;;;;;;;;;5070803;28;20516;-91
2021/12/22 06:12:43;;;;;;;8.13;5.23;;;;;;;;;;5072854;28;20217;-91
2021/12/22 06:15:11;;;;;;;10.67;6.63;;;;;;;;;;5070408;28;20757;-90
2021/12/22 06:17:39;;;;;;;8.83;5.57;;;;;;;;;;5065027;28;20214;-91
2021/12/22 06:20:07;;;;;;;8.20;5.27;;;;;;;;;;5071824;28;20223;-90
2021/12/22 06:22:36;;;;;;;8.07;5.63;;;;;;;;;;5072604;28;20645;-90
2021/12/22 06:25:03;;;;;;;13.77;6.80;;;;;;;;;;5058314;28;20221;-90
2021/12/22 06:27:32;;;;;;;12.50;6.90;;;;;;;;;;5072085;28;20220;-91
2021/12/22 06:29:59;;;;;;;10.40;6.87;;;;;;;;;;5072951;28;20205;-91
2021/12/22 06:32:28;;;;;;;11.20;7.17;;;;;;;;;;5073026;28;20229;-90
2021/12/22 06:34:55;;;;;;;8.57;5.77;;;;;;;;;;5060118;28;20233;-91
2021/12/22 06:37:23;;;;;;;12.30;6.33;;;;;;;;;;5071669;28;20242;-90
2021/12/22 06:39:50;;;;;;;15.23;8.00;;;;;;;;;;5072919;28;20205;-90
2021/12/22 06:42:17;;;;;;;12.17;7.60;;;;;;;;;;5065737;28;20279;-90
2021/12/22 06:44:57;;;;;;;10.33;6.97;;;;;;;;;;5068649;28;20205;-91
2021/12/22 06:47:24;;;;;;;10.07;6.43;;;;;;;;;;5066013;28;20209;-90
2021/12/22 06:49:53;;;;;;;11.60;6.80;;;;;;;;;;5070372;28;20315;-90
2021/12/22 06:52:24;;;;;;;11.23;6.80;;;;;;;;;;5066374;28;20228;-91
2021/12/22 06:54:51;;;;;;;10.40;6.33;;;;;;;;;;5078047;28;20205;-90
2021/12/22 06:57:21;;;;;;;13.27;7.13;;;;;;;;;;5072340;28;20205;-91
2021/12/22 06:59:48;;;;;;;8.17;5.60;;;;;;;;;;5070476;28;20239;-90
2021/12/22 07:02:16;;;;;;;16.17;7.73;;;;;;;;;;5060529;28;20221;-90
2021/12/22 07:04:43;;;;;;;10.33;7.07;;;;;;;;;;5068353;28;20736;-91
2021/12/22 07:07:12;;;;;;;17.00;7.57;;;;;;;;;;5071552;28;20567;-91
2021/12/22 07:09:39;;;;;;;14.30;6.77;;;;;;;;;;5069413;28;20209;-90
2021/12/22 07:12:07;;;;;;;14.70;8.03;;;;;;;;;;5064234;28;22368;-90
2021/12/22 07:14:37;;;;;;;13.97;7.93;;;;;;;;;;5075555;28;20274;-89
2021/12/22 07:17:05;;;;;;;12.53;8.60;;;;;;;;;;5072188;28;20209;-90
2021/12/22 07:19:32;;;;;;;13.93;8.10;;;;;;;;;;5057548;28;20209;-90
2021/12/22 07:21:59;;;;;;;12.23;8.30;;;;;;;;;;5071648;28;20286;-90
2021/12/22 07:24:28;;;;;;;13.37;8.10;;;;;;;;;;5071936;28;20197;-91
2021/12/22 07:26:55;;;;;;;12.87;7.30;;;;;;;;;;5071803;28;20225;-90
2021/12/22 07:29:23;;;;;;;13.80;7.43;;;;;;;;;;5066217;28;20209;-91
2021/12/22 07:31:51;;;;;;;11.90;7.83;;;;;;;;;;5075297;28;20228;-90
2021/12/22 07:34:21;;;;;;;16.90;8.43;;;;;;;;;;5075712;28;20247;-91
2021/12/22 07:37:22;;;;;;;10.33;7.00;;;;;;;;;;5069526;28;20209;-90
2021/12/22 07:39:51;;;;;;;10.50;7.60;;;;;;;;;;5072297;28;20228;-90
2021/12/22 07:42:19;;;;;;;15.77;9.47;;;;;;;;;;5075507;28;20229;-91
2021/12/22 07:44:46;;;;;;;14.10;9.80;;;;;;;;;;5067980;28;20208;-90
2021/12/22 07:47:13;;;;;;;12.50;8.87;;;;;;;;;;5062668;28;20594;-90
2021/12/22 07:49:41;;;;;;;19.53;9.37;;;;;;;;;;5075198;28;20205;-90
2021/12/22 07:52:08;;;;;;;19.97;10.57;;;;;;;;;;5075242;28;20229;-90
2021/12/22 07:54:36;;;;;;;15.13;8.73;;;;;;;;;;5064454;28;20218;-90
2021/12/22 07:57:05;;;;;;;11.43;8.07;;;;;;;;;;5072820;28;20201;-90
2021/12/22 07:59:32;;;;;;;14.13;9.97;;;;;;;;;;5074342;28;20263;-91
2021/12/22 08:01:59;;;;;;;13.13;8.77;;;;;;;;;;5063495;28;20248;-90
2021/12/22 08:04:27;;;;;;;14.90;9.03;;;;;;;;;;5073758;28;20198;-90
2021/12/22 08:06:56;;;;;;;16.33;9.60;;;;;;;;;;5074589;28;20208;-90
2021/12/22 08:09:26;;;;;;;15.23;8.33;;;;;;;;;;5065925;28;20233;-90
2021/12/22 08:11:53;;;;;;;11.93;7.30;;;;;;;;;;5069405;28;20225;-90
2021/12/22 08:14:23;;;;;;;12.93;8.03;;;;;;;;;;5074809;28;20221;-90
2021/12/22 08:16:50;;;;;;;12.00;8.10;;;;;;;;;;5070352;28;20202;-90
2021/12/22 08:19:18;;;;;;;12.40;7.97;;;;;;;;;;5071720;28;20232;-90
2021/12/22 08:21:45;;;;;;;12.00;7.60;;;;;;;;;;5075000;28;20228;-91
2021/12/22 08:24:14;;;;;;;12.57;8.20;;;;;;;;;;5072897;28;20209;-90
2021/12/22 08:26:41;;;;;;;14.43;8.13;;;;;;;;;;5065569;28;20225;-91
2021/12/22 08:29:08;;;;;;;14.60;8.17;;;;;;;;;;5074155;28;20205;-91
2021/12/22 08:31:37;;;;;;;14.27;8.70;;;;;;;;;;5074852;28;20290;-90
2021/12/22 08:34:06;;;;;;;13.10;8.80;;;;;;;;;;5064072;28;20233;-91
2021/12/22 08:39:18;;;;;;;14.77;9.10;;;;;;;;;;5068420;28;20558;-90
2021/12/22 08:41:47;;;;;;;16.57;10.20;;;;;;;;;;5061455;28;20291;-91
2021/12/22 08:44:16;;;;;;;19.30;12.17;;;;;;;;;;5070122;28;20201;-91
2021/12/22 08:46:46;;;;;;;20.37;11.07;;;;;;;;;;5074172;28;20209;-91
2021/12/22 08:49:14;;;;;;;20.90;11.17;;;;;;;;;;5068865;28;20194;-90
2021/12/22 08:51:41;;;;;;;18.27;11.93;;;;;;;;;;5072092;28;20225;-91
2021/12/22 08:54:09;;;;;;;19.23;11.60;;;;;;;;;;5073669;28;20217;-91
2021/12/22 08:56:37;;;;;;;16.83;11.27;;;;;;;;;;5074049;28;20205;-91
2021/12/22 08:59:06;;;;;;;17.23;11.03;;;;;;;;;;5079753;28;20209;-91
2021/12/22 09:01:33;;;;;;;15.13;10.33;;;;;;;;;;5073141;28;20439;-91
2021/12/22 09:04:02;;;;;;;16.77;11.70;;;;;;;;;;5073869;28;20208;-91
2021/12/22 09:06:29;;;;;;;15.47;10.73;;;;;;;;;;5073609;28;20193;-91
2021/12/22 09:08:58;;;;;;;16.47;11.27;;;;;;;;;;5069448;28;20212;-91
2021/12/22 09:11:25;;;;;;;14.13;9.53;;;;;;;;;;5073350;28;20217;-91
2021/12/22 09:13:53;;;;;;;16.10;11.23;;;;;;;;;;5073221;28;20734;-91
2021/12/22 09:16:21;;;;;;;19.63;12.60;;;;;;;;;;5069834;28;20208;-90
2021/12/22 09:18:48;;;;;;;18.93;12.43;;;;;;;;;;5070061;28;20903;-90
2021/12/22 09:21:17;;;;;;;19.57;12.90;;;;;;;;;;5078240;28;20258;-90
2021/12/22 09:23:45;;;;;;;23.27;14.57;;;;;;;;;;5076771;28;20263;-90
2021/12/22 09:26:12;;;;;;;26.87;15.13;;;;;;;;;;5073231;28;20233;-91
2021/12/22 09:28:39;;;;;;;26.70;14.40;;;;;;;;;;5073332;28;20209;-90
2021/12/22 09:31:07;;;;;;;22.47;13.50;;;;;;;;;;5073419;28;20209;-90
2021/12/22 09:33:34;;;;;;;20.63;12.07;;;;;;;;;;5073240;28;20232;-90
2021/12/22 09:36:02;;;;;;;18.33;12.37;;;;;;;;;;5073314;28;20205;-91
2021/12/22 09:38:31;;;;;;;20.60;12.93;;;;;;;;;;5073310;28;20654;-91
2021/12/22 09:40:58;;;;;;;19.63;12.67;;;;;;;;;;5073092;28;20209;-91
2021/12/22 09:43:44;;;;;;;19.53;11.57;;;;;;;;;;5073379;28;20262;-90
2021/12/22 09:46:15;;;;;;;15.57;11.73;;;;;;;;;;5072699;28;20224;-91
2021/12/22 09:54:13;;;;;;;16.90;10.63;;;;;;;;;;5072622;28;20220;-91
2021/12/22 09:56:42;;;;;;;18.40;11.73;;;;;;;;;;5073308;28;20243;-90
2021/12/22 09:59:09;;;;;;;18.97;11.17;;;;;;;;;;5072910;28;20201;-91
2021/12/22 10:01:36;;;;;;;19.03;11.50;;;;;;;;;;5073243;28;20229;-91
2021/12/22 10:04:04;;;;;;;20.13;11.27;;;;;;;;;;5073185;28;20258;-91
2021/12/22 10:06:31;;;;;;;18.73;11.87;;;;;;;;;;5073135;28;20209;-90
2021/12/22 10:08:59;;;;;;;17.00;11.13;;;;;;;;;;5072933;28;20263;-91
2021/12/22 10:11:30;;;;;;;17.40;10.17;;;;;;;;;;5072929;28;20225;-91
2021/12/22 10:13:58;;;;;;;18.60;10.13;;;;;;;;;;5072906;28;20229;-91
2021/12/22 10:16:26;;;;;;;13.67;10.20;;;;;;;;;;5072812;28;20216;-90
2021/12/22 10:19:04;;;;;;;15.27;10.77;;;;;;;;;;5072999;28;20251;-90
2021/12/22 10:21:33;;;;;;;19.50;11.10;;;;;;;;;;5072945;28;20274;-91
2021/12/22 10:24:03;;;;;;;15.93;9.97;;;;;;;;;;5072843;28;20209;-91
2021/12/22 10:26:32;;;;;;;16.80;10.13;;;;;;;;;;5072568;28;20213;-90
2021/12/22 10:29:00;;;;;;;16.53;9.60;;;;;;;;;;5073007;28;20542;-91
2021/12/22 10:31:29;;;;;;;14.33;8.27;;;;;;;;;;5073025;28;20323;-91
2021/12/22 10:33:57;;;;;;;18.13;9.97;;;;;;;;;;5072666;28;20233;-91
2021/12/22 10:36:25;;;;;;;15.77;9.37;;;;;;;;;;5072649;28;20208;-90
2021/12/22 10:38:53;;;;;;;13.13;8.63;;;;;;;;;;5072562;28;20232;-91
2021/12/22 10:41:21;;;;;;;14.67;10.20;;;;;;;;;;5072829;28;20221;-90
2021/12/22 10:43:51;;;;;;;14.73;9.17;;;;;;;;;;5072591;28;20228;-91
2021/12/22 10:46:26;;;;;;;14.53;9.97;;;;;;;;;;5072672;28;20197;-91
2021/12/22 10:49:17;;;;;;;15.13;10.07;;;;;;;;;;5072459;28;20243;-90
2021/12/22 10:51:46;;;;;;;14.70;9.43;;;;;;;;;;5072287;28;20237;-91
2021/12/22 10:54:14;;;;;;;17.50;11.07;;;;;;;;;;5072560;28;20291;-91
2021/12/22 10:56:42;;;;;;;16.50;11.17;;;;;;;;;;5072352;28;20201;-91
2021/12/22 10:59:12;;;;;;;19.30;11.60;;;;;;;;;;5072524;28;20201;-91
2021/12/22 11:01:41;;;;;;;16.70;10.43;;;;;;;;;;5072330;28;20260;-91
2021/12/22 11:04:17;;;;;;;16.23;10.03;;;;;;;;;;5074793;28;20197;-91
2021/12/22 11:06:45;;;;;;;15.37;9.30;;;;;;;;;;5076720;28;20216;-90
2021/12/22 11:09:14;;;;;;;15.23;9.87;;;;;;;;;;5076854;28;20638;-91
2021/12/22 11:11:42;;;;;;;15.83;9.60;;;;;;;;;;5076194;28;20733;-90
2021/12/22 11:14:17;;;;;;;16.50;10.30;;;;;;;;;;5076113;28;20221;-92
2021/12/22 11:16:58;;;;;;;15.47;10.67;;;;;;;;;;5076300;28;20220;-90
2021/12/22 11:19:27;;;;;;;18.67;11.33;;;;;;;;;;5075986;28;20205;-90
2021/12/22 11:22:02;;;;;;;15.77;9.53;;;;;;;;;;5076020;28;20590;-90
2021/12/22 11:24:29;;;;;;;20.37;10.30;;;;;;;;;;5075776;28;20205;-90
2021/12/22 11:26:57;;;;;;;15.23;10.00;;;;;;;;;;5076027;28;20213;-90
2021/12/22 11:29:26;;;;;;;18.40;10.87;;;;;;;;;;5075759;28;20201;-90
2021/12/22 11:31:53;;;;;;;17.53;10.40;;;;;;;;;;5075856;28;20225;-90
2021/12/22 11:34:21;;;;;;;18.10;10.20;;;;;;;;;;5075538;28;20236;-91
2021/12/22 11:36:50;;;;;;;16.23;10.00;;;;;;;;;;5075758;28;20197;-91
2021/12/22 11:39:18;;;;;;;18.60;10.77;;;;;;;;;;5075569;28;20228;-89
2021/12/22 11:41:55;;;;;;;16.03;9.53;;;;;;;;;;5075529;28;20274;-91
2021/12/22 11:44:23;;;;;;;15.07;10.27;;;;;;;;;;5081707;28;20201;-90
2021/12/22 11:46:54;;;;;;;16.90;11.03;;;;;;;;;;5075285;28;20292;-90
2021/12/22 11:49:21;;;;;;;16.97;10.30;;;;;;;;;;5075689;28;20205;-91
2021/12/22 11:51:49;;;;;;;15.90;10.73;;;;;;;;;;5074651;28;20221;-90
2021/12/22 11:54:16;;;;;;;16.77;9.73;;;;;;;;;;5074975;28;20271;-90
2021/12/22 11:56:44;;;;;;;16.63;10.33;;;;;;;;;;5075019;28;20206;-91
2021/12/22 11:59:32;;;;;;;15.20;10.27;;;;;;;;;;5074975;28;20658;-90
2021/12/22 12:02:18;;;;;;;18.40;11.77;;;;;;;;;;5074751;28;20651;-90
2021/12/22 12:04:48;;;;;;;18.23;10.87;;;;;;;;;;5075094;28;20259;-90
2021/12/22 12:07:30;;;;;;;16.87;10.40;;;;;;;;;;5074997;28;20209;-90
2021/12/22 12:10:18;;;;;;;16.23;10.73;;;;;;;;;;5077186;28;20216;-90
2021/12/22 12:12:50;;;;;;;17.27;10.70;;;;;;;;;;5074971;28;20229;-90
2021/12/22 12:15:53;;;;;;;19.03;10.77;;;;;;;;;;5066782;28;20365;-90
2021/12/22 12:21:41;;;;;;;17.00;10.27;;;;;;;;;;5074622;28;20219;-91
2021/12/22 12:24:23;;;;;;;18.60;11.03;;;;;;;;;;5074756;28;20208;-90
2021/12/22 12:26:52;;;;;;;17.07;10.70;;;;;;;;;;5074070;28;20221;-90
2021/12/22 12:29:46;;;;;;;16.80;11.13;;;;;;;;;;5074849;28;20296;-90
2021/12/22 12:32:39;;;;;;;18.57;11.40;;;;;;;;;;5074588;28;20763;-90
2021/12/22 12:35:23;;;;;;;18.33;10.73;;;;;;;;;;5074111;28;20803;-90
2021/12/22 12:37:57;;;;;;;19.10;10.80;;;;;;;;;;5074929;28;20274;-91
2021/12/22 12:40:24;;;;;;;17.10;10.87;;;;;;;;;;5075004;28;20251;-90
2021/12/22 12:42:58;;;;;;;17.50;10.80;;;;;;;;;;5074572;28;20232;-90
2021/12/22 12:45:44;;;;;;;12.27;7.07;;;;;;;;;;5074817;28;20198;-90
2021/12/22 12:48:30;;;;;;;16.73;9.27;;;;;;;;;;5074629;28;20200;-90
2021/12/22 12:51:15;;;;;;;19.00;11.67;;;;;;;;;;5074855;28;20198;-90
2021/12/22 12:53:43;;;;;;;18.00;9.40;;;;;;;;;;5074648;28;20267;-90
2021/12/22 12:56:12;;;;;;;17.63;9.93;;;;;;;;;;5073961;28;20221;-90
2021/12/22 12:58:52;;;;;;;11.50;6.30;;;;;;;;;;5073942;28;20576;-90
2021/12/22 13:01:20;;;;;;;18.20;10.10;;;;;;;;;;5074345;28;20773;-90
2021/12/22 13:03:48;;;;;;;12.27;7.47;;;;;;;;;;5074360;28;20563;-89
2021/12/22 13:06:17;;;;;;;18.67;10.37;;;;;;;;;;5073965;28;20203;-92
2021/12/22 13:08:46;;;;;;;20.33;10.90;;;;;;;;;;5074207;28;20205;-89
2021/12/22 13:11:14;;;;;;;18.17;10.53;;;;;;;;;;5073725;28;20629;-89
2021/12/22 13:15:46;;;;;;;18.70;11.37;;;;;;;;;;5073961;28;20205;-89
2021/12/22 13:16:41;;;;;;;21.30;11.67;;;;;;;;;;5073405;28;20201;-90
2021/12/22 13:19:11;;;;;;;18.07;11.47;;;;;;;;;;5073986;28;20208;-89
2021/12/22 13:21:41;;;;;;;18.63;10.83;;;;;;;;;;5073669;28;20625;-90
2021/12/22 13:24:08;;;;;;;17.27;10.97;;;;;;;;;;5073996;28;20197;-90
2021/12/22 13:26:35;;;;;;;18.67;11.40;;;;;;;;;;5074045;28;20263;-89
2021/12/22 13:29:03;;;;;;;17.40;10.93;;;;;;;;;;5075048;28;20270;-90
2021/12/22 13:31:30;;;;;;;18.37;11.30;;;;;;;;;;5073940;28;20304;-91
2021/12/22 13:34:02;;;;;;;18.83;10.90;;;;;;;;;;5073722;28;20258;-90
2021/12/22 13:36:30;;;;;;;19.93;11.43;;;;;;;;;;5073390;28;20217;-89
2021/12/22 13:39:01;;;;;;;18.23;11.80;;;;;;;;;;5073696;28;20205;-89
2021/12/22 13:41:31;;;;;;;21.23;11.10;;;;;;;;;;5076207;28;20292;-89
2021/12/22 13:43:59;;;;;;;17.57;10.27;;;;;;;;;;5079577;28;20668;-89
2021/12/22 13:46:30;;;;;;;17.43;9.27;;;;;;;;;;5073393;28;20189;-89
2021/12/22 13:49:00;;;;;;;18.70;11.23;;;;;;;;;;5073751;28;20202;-89
2021/12/22 13:51:29;;;;;;;22.07;13.13;;;;;;;;;;5073059;28;20674;-89
2021/12/22 13:53:57;;;;;;;19.50;12.00;;;;;;;;;;5073218;28;20267;-89
2021/12/22 13:56:26;;;;;;;20.23;11.23;;;;;;;;;;5072552;28;20692;-89
2021/12/22 13:58:56;;;;;;;18.30;11.73;;;;;;;;;;5071910;28;20296;-90
2021/12/22 14:01:38;;;;;;;20.03;11.77;;;;;;;;;;5053076;28;20226;-89
2021/12/22 14:04:07;;;;;;;22.97;12.57;;;;;;;;;;5054700;28;20201;-90
2021/12/22 14:06:35;;;;;;;18.63;10.40;;;;;;;;;;5072640;28;20666;-90
2021/12/22 14:09:06;;;;;;;21.17;11.83;;;;;;;;;;5072800;28;20258;-89
2021/12/22 14:11:37;;;;;;;23.73;11.43;;;;;;;;;;5072996;28;20233;-89
2021/12/22 14:14:23;;;;;;;19.27;12.40;;;;;;;;;;5072920;28;20197;-89
2021/12/22 14:16:51;;;;;;;22.73;12.03;;;;;;;;;;5072342;28;20290;-89
2021/12/22 14:19:19;;;;;;;19.97;11.27;;;;;;;;;;5072935;28;20209;-89
2021/12/22 14:21:48;;;;;;;23.47;13.20;;;;;;;;;;5072591;28;20229;-90
2021/12/22 14:24:20;;;;;;;19.90;12.20;;;;;;;;;;5072647;28;20200;-89
2021/12/22 14:26:49;;;;;;;21.67;12.27;;;;;;;;;;5072767;28;20202;-90
2021/12/22 14:29:16;;;;;;;21.30;11.43;;;;;;;;;;5079785;28;20225;-90
2021/12/22 14:32:01;;;;;;;23.10;13.13;;;;;;;;;;5072450;28;20224;-89
2021/12/22 14:34:29;;;;;;;21.60;13.00;;;;;;;;;;5058193;28;20208;-90
2021/12/22 14:36:56;;;;;;;22.23;15.30;;;;;;;;;;5072009;28;20254;-90
2021/12/22 14:39:39;;;;;;;25.40;15.23;;;;;;;;;;5072531;28;20212;-90
2021/12/22 14:42:21;;;;;;;22.43;12.40;;;;;;;;;;5071948;28;20224;-89
2021/12/22 14:44:49;;;;;;;22.30;14.20;;;;;;;;;;5072970;28;20213;-90
2021/12/22 14:47:20;;;;;;;24.17;13.87;;;;;;;;;;5072915;28;20262;-90
2021/12/22 14:49:47;;;;;;;22.13;12.57;;;;;;;;;;5072808;28;20637;-90
2021/12/22 14:52:15;;;;;;;27.03;15.97;;;;;;;;;;5072116;28;20893;-89
2021/12/22 14:54:42;;;;;;;21.97;12.20;;;;;;;;;;5072319;28;20604;-89
2021/12/22 14:57:09;;;;;;;21.13;13.53;;;;;;;;;;5072481;28;20211;-90
2021/12/22 14:59:38;;;;;;;21.73;13.33;;;;;;;;;;5072486;28;20774;-90
2021/12/22 15:02:06;;;;;;;21.60;9.27;;;;;;;;;;5072313;28;20225;-90
2021/12/22 15:04:33;;;;;;;22.20;13.07;;;;;;;;;;5072570;28;20278;-89
2021/12/22 15:07:00;;;;;;;24.37;13.40;;;;;;;;;;5072367;28;20204;-89